»·PEaware :: N572GR KSLC-KDTA

N572GR :: KSLC-KDTA

FLIGHT INFORMATION

Flight Status: Arrived
Operator: Privately registered:
United States
More flights under this callsign
Pilot: Anonymous 8799 (8799)
Aircraft: CESSNA 206 STATIONAIR
(C206)
More flights by this aircraft type
Origin: KSLC Salt Lake City Intl
United States
Destination: KDTA Delta Mun
United States
More flights between these airports :: More routes between these airports
Route: SLC4 TCH V21 DTA
File this flight plan on PilotEdge
Remarks:
Altitude:
(Current/Filed)
12,000ft
Speed:
(Current/Filed)
135kts
Departed: 04-Jan-20 09:36 AM
Arrived: 04-Jan-20 10:20 AM
Distance/Time
Traveled:
88nm/0:44
Distance/Time
To Go:
Arrived

Flight Plot

Page will automatically refresh every two minutes.

Flight plan parsing failed; only flown route is shown


Map Options




Map Legend


Flown Route
Filed Route
Departure Airport
Arrival Airport
Navaid (VOR, NDB)
Fix

Horizontal Profiles

Position Reports

Time Latitude Longitude Heading Altitude Ground
Speed
04-Jan-20 09:05 40.778960 -111.958668 177 4231ft 0kts
04-Jan-20 09:06 40.778960 -111.958668 177 4231ft 0kts
04-Jan-20 09:07 40.778960 -111.958668 177 4231ft 0kts
04-Jan-20 09:08 40.778960 -111.958668 177 4231ft 0kts
04-Jan-20 09:09 40.778960 -111.958668 177 4231ft 0kts
04-Jan-20 09:10 40.778960 -111.958668 177 4231ft 0kts
04-Jan-20 09:11 40.778960 -111.958668 177 4231ft 0kts
04-Jan-20 09:12 40.778960 -111.958668 177 4231ft 0kts
04-Jan-20 09:13 40.778960 -111.958668 177 4231ft 0kts
04-Jan-20 09:14 40.778960 -111.958668 177 4231ft 0kts
04-Jan-20 09:15 40.778960 -111.958668 177 4231ft 0kts
04-Jan-20 09:16 40.778960 -111.958668 177 4231ft 0kts
04-Jan-20 09:17 40.778960 -111.958668 177 4231ft 0kts
04-Jan-20 09:18 40.778960 -111.958668 177 4231ft 0kts
04-Jan-20 09:19 40.778927 -111.958698 235 4231ft 1kts
04-Jan-20 09:20 40.780029 -111.959951 3 4231ft 13kts
04-Jan-20 09:21 40.783181 -111.960006 357 4231ft 10kts
04-Jan-20 09:22 40.785816 -111.959994 8 4231ft 8kts
04-Jan-20 09:23 40.787955 -111.959985 359 4231ft 5kts
04-Jan-20 09:24 40.787981 -111.959985 359 4231ft 0kts
04-Jan-20 09:25 40.787981 -111.959985 359 4231ft 0kts
04-Jan-20 09:26 40.787981 -111.959985 359 4231ft 0kts
04-Jan-20 09:27 40.787982 -111.959985 358 4231ft 0kts
04-Jan-20 09:28 40.788851 -111.959987 1 4231ft 9kts
04-Jan-20 09:29 40.791836 -111.960022 359 4231ft 11kts
04-Jan-20 09:30 40.795122 -111.960018 2 4231ft 12kts
04-Jan-20 09:31 40.798443 -111.960013 355 4231ft 11kts
04-Jan-20 09:32 40.798888 -111.960510 286 4231ft 0kts
04-Jan-20 09:33 40.798896 -111.960557 279 4231ft 1kts
04-Jan-20 09:34 40.797888 -111.962020 180 4231ft 24kts
04-Jan-20 09:35 40.775202 -111.961398 170 4788ft 102kts
04-Jan-20 09:36 40.743475 -111.957391 171 5548ft 117kts
04-Jan-20 09:37 40.710033 -111.952788 171 6331ft 125kts
04-Jan-20 09:39 40.675605 -111.947236 172 6869ft 123kts
04-Jan-20 09:40 40.642310 -111.941898 171 7501ft 113kts
04-Jan-20 09:41 40.611072 -111.937114 172 8096ft 112kts
04-Jan-20 09:42 40.579987 -111.932592 175 8635ft 112kts
04-Jan-20 09:43 40.548598 -111.932681 178 9140ft 113kts
04-Jan-20 09:44 40.516880 -111.933407 180 9624ft 115kts
04-Jan-20 09:45 40.485234 -111.934209 183 10113ft 115kts
04-Jan-20 09:46 40.453327 -111.935067 185 10596ft 114kts
04-Jan-20 09:47 40.421391 -111.935919 186 11066ft 115kts
04-Jan-20 09:48 40.389558 -111.936776 187 11438ft 115kts
04-Jan-20 09:49 40.357654 -111.937660 188 11786ft 115kts
04-Jan-20 09:50 40.325206 -111.938563 189 12001ft 123kts
04-Jan-20 09:51 40.288898 -111.939667 188 12007ft 135kts
04-Jan-20 09:52 40.254142 -111.952965 207 12016ft 131kts
04-Jan-20 09:53 40.220623 -111.972183 208 12025ft 132kts
04-Jan-20 09:54 40.187045 -111.991863 208 12035ft 132kts
04-Jan-20 09:55 40.153489 -112.011582 208 12043ft 132kts
04-Jan-20 09:56 40.119920 -112.031281 208 12043ft 132kts
04-Jan-20 09:57 40.086418 -112.050917 208 12044ft 132kts
04-Jan-20 09:58 40.052801 -112.070633 208 12043ft 132kts
04-Jan-20 09:58 40.024685 -112.087111 208 12043ft 132kts
04-Jan-20 10:00 39.985365 -112.110108 208 12036ft 132kts
04-Jan-20 10:01 39.951754 -112.129753 208 12029ft 132kts
04-Jan-20 10:01 39.923851 -112.146047 209 11969ft 134kts
04-Jan-20 10:02 39.892275 -112.166179 226 11415ft 146kts
04-Jan-20 10:04 39.862769 -112.216404 232 10719ft 152kts
04-Jan-20 10:04 39.841497 -112.253492 231 10222ft 155kts
04-Jan-20 10:05 39.815523 -112.298927 230 9707ft 154kts
04-Jan-20 10:06 39.791413 -112.340827 230 9698ft 138kts
04-Jan-20 10:07 39.768734 -112.380166 229 9699ft 133kts
04-Jan-20 10:08 39.746564 -112.418605 229 9699ft 132kts
04-Jan-20 10:09 39.724618 -112.456629 229 9699ft 132kts
04-Jan-20 10:10 39.695480 -112.479557 202 9700ft 130kts
04-Jan-20 10:11 39.662712 -112.497050 198 9700ft 130kts
04-Jan-20 10:12 39.626771 -112.500255 184 9724ft 130kts
04-Jan-20 10:13 39.586541 -112.500745 182 9136ft 153kts
04-Jan-20 10:14 39.543821 -112.501026 181 8722ft 147kts
04-Jan-20 10:15 39.500603 -112.501355 181 7875ft 168kts
04-Jan-20 10:16 39.455550 -112.501702 181 6758ft 152kts
04-Jan-20 10:17 39.417395 -112.502000 178 5431ft 105kts
04-Jan-20 10:18 39.391515 -112.502174 177 4790ft 94kts
04-Jan-20 10:19 39.381492 -112.502613 191 4762ft 0kts
04-Jan-20 10:20 39.381492 -112.502613 191 4762ft 0kts
04-Jan-20 10:21 39.381492 -112.502613 191 4762ft 0kts
04-Jan-20 10:22 39.381492 -112.502613 191 4762ft 0kts
04-Jan-20 10:23 39.381492 -112.502613 191 4762ft 0kts
04-Jan-20 10:24 39.381492 -112.502613 191 4762ft 0kts
04-Jan-20 10:25 39.381492 -112.502613 191 4762ft 0kts
04-Jan-20 10:26 39.381492 -112.502613 191 4762ft 0kts
04-Jan-20 10:27 39.381492 -112.502613 191 4762ft 0kts
04-Jan-20 10:28 39.381492 -112.502613 191 4762ft 0kts
04-Jan-20 10:29 39.381492 -112.502613 191 4762ft 0kts
04-Jan-20 10:30 39.381492 -112.502613 191 4762ft 0kts
04-Jan-20 10:31 39.381492 -112.502613 191 4762ft 0kts

Navigation Log

Ident Type
Flight plan parsing failed, navigation log unavailable